createdAt,value
2017-01-31T00:00:30.870Z,2.68
2017-01-31T00:01:11.538Z,2.67
2017-01-31T00:01:52.210Z,2.64
2017-01-31T00:02:32.813Z,2.65
2017-01-31T00:03:13.386Z,2.68
2017-01-31T00:03:54.025Z,2.6
2017-01-31T00:04:34.723Z,2.62
2017-01-31T00:05:15.318Z,2.65
2017-01-31T00:05:55.879Z,2.62
2017-01-31T00:06:36.546Z,2.62
2017-01-31T00:07:17.240Z,2.68
2017-01-31T00:07:57.932Z,2.62
2017-01-31T00:08:38.503Z,2.67
2017-01-31T00:09:19.160Z,2.69
2017-01-31T00:09:59.840Z,2.61
2017-01-31T00:10:40.540Z,2.6
2017-01-31T00:11:21.102Z,2.62
2017-01-31T00:12:01.772Z,2.65
2017-01-31T00:12:42.462Z,2.67
2017-01-31T00:13:23.105Z,2.61
2017-01-31T00:14:03.767Z,2.64
2017-01-31T00:14:44.417Z,2.49
2017-01-31T00:15:25.066Z,2.6
2017-01-31T00:16:05.715Z,2.56
2017-01-31T00:16:46.379Z,2.53
2017-01-31T00:17:27.024Z,2.57
2017-01-31T00:18:07.648Z,2.5
2017-01-31T00:18:48.291Z,2.47
2017-01-31T00:19:28.951Z,2.6
2017-01-31T00:20:09.601Z,2.49
2017-01-31T00:20:50.260Z,2.49
2017-01-31T00:21:30.910Z,2.5
2017-01-31T00:22:11.567Z,2.49
2017-01-31T00:22:52.215Z,2.53
2017-01-31T00:23:32.879Z,2.53
2017-01-31T00:24:13.525Z,2.44
2017-01-31T00:24:54.168Z,2.57
2017-01-31T00:25:34.824Z,2.51
2017-01-31T00:26:15.486Z,2.51
2017-01-31T00:26:56.125Z,2.54
2017-01-31T00:27:36.790Z,2.43
2017-01-31T00:28:17.436Z,2.47
2017-01-31T00:28:58.084Z,2.42
2017-01-31T00:29:38.748Z,2.53
2017-01-31T00:30:19.393Z,2.46
2017-01-31T00:31:00.060Z,2.53
2017-01-31T00:31:40.701Z,2.51
2017-01-31T00:32:21.355Z,2.51
2017-01-31T00:33:02.005Z,2.51
2017-01-31T00:33:42.659Z,2.42
2017-01-31T00:34:23.318Z,2.5
2017-01-31T00:35:03.959Z,2.5
2017-01-31T00:35:44.726Z,2.51
2017-01-31T00:36:25.377Z,2.42
2017-01-31T00:37:06.030Z,2.46
2017-01-31T00:37:46.680Z,2.39
2017-01-31T00:38:27.331Z,2.47
2017-01-31T00:39:08.000Z,2.5
2017-01-31T00:39:48.641Z,2.49
2017-01-31T00:40:29.295Z,2.53
2017-01-31T00:41:09.947Z,2.56
2017-01-31T00:41:50.606Z,2.47
2017-01-31T00:42:31.249Z,2.46
2017-01-31T00:43:11.901Z,2.47
2017-01-31T00:43:52.565Z,2.53
2017-01-31T00:44:33.311Z,2.43
2017-01-31T00:45:13.950Z,2.43
2017-01-31T00:45:54.616Z,2.47
2017-01-31T00:46:35.294Z,2.42
2017-01-31T00:47:15.931Z,2.49
2017-01-31T00:47:56.615Z,2.49
2017-01-31T00:48:37.313Z,2.42
2017-01-31T00:49:17.877Z,2.47
2017-01-31T00:49:58.530Z,2.5
2017-01-31T00:50:39.232Z,2.51
2017-01-31T00:51:19.927Z,2.53
2017-01-31T00:52:00.497Z,2.5
2017-01-31T00:52:41.162Z,2.43
2017-01-31T00:53:21.813Z,2.53
2017-01-31T00:54:02.455Z,2.54
2017-01-31T00:54:43.108Z,2.54
2017-01-31T00:55:23.762Z,2.54
2017-01-31T00:56:04.425Z,2.43
2017-01-31T00:56:45.057Z,2.44
2017-01-31T00:57:25.709Z,2.53
2017-01-31T00:58:06.350Z,2.49
2017-01-31T00:58:46.915Z,2.53
2017-01-31T00:59:27.572Z,2.5
2017-01-31T01:00:08.138Z,2.57
2017-01-31T01:00:48.706Z,2.51
2017-01-31T01:01:29.321Z,2.5
2017-01-31T01:02:09.964Z,2.5
2017-01-31T01:02:50.527Z,2.51
2017-01-31T01:03:31.180Z,2.46
2017-01-31T01:04:11.822Z,2.46
2017-01-31T01:04:52.386Z,2.53
2017-01-31T01:05:33.033Z,2.46
2017-01-31T01:06:13.678Z,2.49
2017-01-31T01:06:54.240Z,2.46
2017-01-31T01:07:34.911Z,2.49
2017-01-31T01:08:15.532Z,2.5
2017-01-31T01:08:56.103Z,2.56
2017-01-31T01:09:36.755Z,2.46
2017-01-31T01:10:17.381Z,2.49
2017-01-31T01:10:57.952Z,2.44
2017-01-31T01:11:38.607Z,2.44
2017-01-31T01:12:19.240Z,2.47
2017-01-31T01:12:59.797Z,2.44
2017-01-31T01:13:40.463Z,2.35
2017-01-31T01:14:21.103Z,2.43
2017-01-31T01:15:01.664Z,2.44
2017-01-31T01:15:42.321Z,2.43
2017-01-31T01:16:23.018Z,2.43
2017-01-31T01:17:03.713Z,2.39
2017-01-31T01:17:44.304Z,2.47
2017-01-31T01:18:24.930Z,2.5
2017-01-31T01:19:05.570Z,2.35
2017-01-31T01:19:46.132Z,2.36
2017-01-31T01:20:26.785Z,2.44
2017-01-31T01:21:07.424Z,2.42
2017-01-31T01:21:48.011Z,2.38
2017-01-31T01:22:28.652Z,2.38
2017-01-31T01:23:09.282Z,2.49
2017-01-31T01:23:49.938Z,2.43
2017-01-31T01:24:30.596Z,2.35
2017-01-31T01:25:11.237Z,2.39
2017-01-31T01:25:51.895Z,2.32
2017-01-31T01:26:32.548Z,2.35
2017-01-31T01:27:13.197Z,2.42
2017-01-31T01:27:53.854Z,2.31
2017-01-31T01:28:34.507Z,2.32
2017-01-31T01:29:15.159Z,2.29
2017-01-31T01:29:55.820Z,2.36
2017-01-31T01:30:36.478Z,2.28
2017-01-31T01:31:17.116Z,2.43
2017-01-31T01:31:57.783Z,2.32
2017-01-31T01:32:38.334Z,2.36
2017-01-31T01:33:19.169Z,2.36
2017-01-31T01:33:59.813Z,2.36
2017-01-31T01:34:40.484Z,2.46
2017-01-31T01:35:21.075Z,2.36
2017-01-31T01:36:01.802Z,2.35
2017-01-31T01:36:42.498Z,2.38
2017-01-31T01:37:23.198Z,2.36
2017-01-31T01:38:03.774Z,2.39
2017-01-31T01:38:44.422Z,2.36
2017-01-31T01:39:25.114Z,2.38
2017-01-31T01:40:05.725Z,2.35
2017-01-31T01:40:46.388Z,2.47
2017-01-31T01:41:27.035Z,2.38
2017-01-31T01:42:07.692Z,2.43
2017-01-31T01:42:48.349Z,2.38
2017-01-31T01:43:29.002Z,2.39
2017-01-31T01:44:09.636Z,2.39
2017-01-31T01:44:50.309Z,2.49
2017-01-31T01:45:30.952Z,2.39
2017-01-31T01:46:11.612Z,2.42
2017-01-31T01:46:52.257Z,2.42
2017-01-31T01:47:32.938Z,2.38
2017-01-31T01:48:13.653Z,2.32
2017-01-31T01:48:54.219Z,2.36
2017-01-31T01:49:34.861Z,2.36
2017-01-31T01:50:15.506Z,2.33
2017-01-31T01:50:56.080Z,2.47
2017-01-31T01:51:36.714Z,2.38
2017-01-31T01:52:17.365Z,2.38
2017-01-31T01:52:57.915Z,2.44
2017-01-31T01:53:38.591Z,2.51
2017-01-31T01:54:19.269Z,2.46
2017-01-31T01:54:59.977Z,2.44
2017-01-31T01:55:40.530Z,2.49
2017-01-31T01:56:21.198Z,2.43
2017-01-31T01:57:01.881Z,2.5
2017-01-31T01:57:42.597Z,2.43
2017-01-31T01:58:23.139Z,2.53
2017-01-31T01:59:03.811Z,2.43
2017-01-31T01:59:44.460Z,2.54
2017-01-31T02:00:25.115Z,2.42
2017-01-31T02:01:05.754Z,2.5
2017-01-31T02:01:46.425Z,2.56
2017-01-31T02:02:27.056Z,2.46
2017-01-31T02:03:07.756Z,2.5
2017-01-31T02:03:48.467Z,2.43
2017-01-31T02:04:29.013Z,2.49
2017-01-31T02:05:09.667Z,2.43
2017-01-31T02:05:50.374Z,2.44
2017-01-31T02:06:31.074Z,2.5
2017-01-31T02:07:11.625Z,2.47
2017-01-31T02:07:52.300Z,2.38
2017-01-31T02:08:32.953Z,2.46
2017-01-31T02:09:13.597Z,2.47
2017-01-31T02:09:54.250Z,2.46
2017-01-31T02:10:34.910Z,2.44
2017-01-31T02:11:15.537Z,2.44
2017-01-31T02:11:56.198Z,2.39
2017-01-31T02:12:36.848Z,2.42
2017-01-31T02:13:17.516Z,2.46
2017-01-31T02:13:58.170Z,2.44
2017-01-31T02:14:38.826Z,2.39
2017-01-31T02:15:19.473Z,2.36
2017-01-31T02:16:00.115Z,2.42
2017-01-31T02:16:40.766Z,2.36
2017-01-31T02:17:21.433Z,2.36
2017-01-31T02:18:02.089Z,2.35
2017-01-31T02:18:42.744Z,2.43
2017-01-31T02:19:23.396Z,2.35
2017-01-31T02:20:04.048Z,2.42
2017-01-31T02:20:44.691Z,2.36
2017-01-31T02:21:25.356Z,2.38
2017-01-31T02:22:06.005Z,2.46
2017-01-31T02:22:46.689Z,2.46
2017-01-31T02:23:27.409Z,2.36
2017-01-31T02:24:08.061Z,2.47
2017-01-31T02:24:48.745Z,2.39
2017-01-31T02:25:29.457Z,2.44
2017-01-31T02:26:10.128Z,2.39
2017-01-31T02:26:50.779Z,2.36
2017-01-31T02:27:31.434Z,2.44
2017-01-31T02:28:12.079Z,2.47
2017-01-31T02:28:52.769Z,2.51
2017-01-31T02:29:33.396Z,2.39
2017-01-31T02:30:14.048Z,2.47
2017-01-31T02:30:54.699Z,2.36
2017-01-31T02:31:35.351Z,2.35
2017-01-31T02:32:15.988Z,2.32
2017-01-31T02:32:56.657Z,2.39
2017-01-31T02:33:37.344Z,2.39
2017-01-31T02:34:18.047Z,2.39
2017-01-31T02:34:58.618Z,2.47
2017-01-31T02:35:39.275Z,2.35
2017-01-31T02:36:19.972Z,2.32
2017-01-31T02:37:00.655Z,2.33
2017-01-31T02:37:41.213Z,2.33
2017-01-31T02:38:21.885Z,2.42
2017-01-31T02:39:02.565Z,2.36
2017-01-31T02:39:43.277Z,2.35
2017-01-31T02:40:23.833Z,2.39
2017-01-31T02:41:04.503Z,2.35
2017-01-31T02:41:45.181Z,2.35
2017-01-31T02:42:25.880Z,2.43
2017-01-31T02:43:06.441Z,2.43
2017-01-31T02:43:47.126Z,2.39
2017-01-31T02:44:27.794Z,2.31
2017-01-31T02:45:08.493Z,2.42
2017-01-31T02:45:49.042Z,2.38
2017-01-31T02:46:29.713Z,2.44
2017-01-31T02:47:10.403Z,2.33
2017-01-31T02:47:51.102Z,2.36
2017-01-31T02:48:31.830Z,2.39
2017-01-31T02:49:12.521Z,2.36
2017-01-31T02:49:53.192Z,2.29
2017-01-31T02:50:33.835Z,2.36
2017-01-31T02:51:14.504Z,2.36
2017-01-31T02:51:55.166Z,2.35
2017-01-31T02:52:35.898Z,2.33
2017-01-31T02:53:16.591Z,2.36
2017-01-31T02:53:57.194Z,2.29
2017-01-31T02:54:37.773Z,2.32
2017-01-31T02:55:18.409Z,2.38
2017-01-31T02:55:59.095Z,2.28
2017-01-31T02:56:39.702Z,2.36
2017-01-31T02:57:20.282Z,2.36
2017-01-31T02:58:01.006Z,2.35
2017-01-31T02:58:41.670Z,2.36
2017-01-31T02:59:22.329Z,2.36
2017-01-31T03:00:02.988Z,2.38
2017-01-31T03:00:43.643Z,2.36
2017-01-31T03:01:24.309Z,2.35
2017-01-31T03:02:05.039Z,2.29
2017-01-31T03:02:45.691Z,2.39
2017-01-31T03:03:26.352Z,2.38
2017-01-31T03:04:06.989Z,2.47
2017-01-31T03:04:47.651Z,2.32
2017-01-31T03:05:28.308Z,2.47
2017-01-31T03:06:08.968Z,2.38
2017-01-31T03:06:49.610Z,2.5
2017-01-31T03:07:30.280Z,2.39
2017-01-31T03:08:10.953Z,2.33
2017-01-31T03:08:51.554Z,2.5
2017-01-31T03:09:32.114Z,2.38
2017-01-31T03:10:12.782Z,2.43
2017-01-31T03:10:53.460Z,2.36
2017-01-31T03:11:34.064Z,2.51
2017-01-31T03:12:14.631Z,2.44
2017-01-31T03:12:55.290Z,2.42
2017-01-31T03:13:35.971Z,2.47
2017-01-31T03:14:16.668Z,2.42
2017-01-31T03:14:57.243Z,2.42
2017-01-31T03:15:38.005Z,2.43
2017-01-31T03:16:18.685Z,2.46
2017-01-31T03:16:59.285Z,2.49
2017-01-31T03:17:39.860Z,2.44
2017-01-31T03:18:20.514Z,2.49
2017-01-31T03:19:01.156Z,2.51
2017-01-31T03:19:41.798Z,2.5
2017-01-31T03:20:22.460Z,2.38
2017-01-31T03:21:03.149Z,2.49
2017-01-31T03:21:43.873Z,2.5
2017-01-31T03:22:24.532Z,2.43
2017-01-31T03:23:05.153Z,2.43
2017-01-31T03:23:45.873Z,2.53
2017-01-31T03:24:26.572Z,2.42
2017-01-31T03:25:07.159Z,2.53
2017-01-31T03:25:47.888Z,2.43
2017-01-31T03:26:28.597Z,2.49
2017-01-31T03:27:09.283Z,2.43
2017-01-31T03:27:49.881Z,2.5
2017-01-31T03:28:30.604Z,2.5
2017-01-31T03:29:11.258Z,2.46
2017-01-31T03:29:51.917Z,2.51
2017-01-31T03:30:32.578Z,2.43
2017-01-31T03:31:13.330Z,2.56
2017-01-31T03:31:54.085Z,2.5
2017-01-31T03:32:34.851Z,2.38
2017-01-31T03:33:15.602Z,2.54
2017-01-31T03:33:56.347Z,2.53
2017-01-31T03:34:37.105Z,2.51
2017-01-31T03:35:17.744Z,2.5
2017-01-31T03:35:58.410Z,2.46
2017-01-31T03:36:39.061Z,2.53
2017-01-31T03:37:19.729Z,2.5
2017-01-31T03:38:00.482Z,2.46
2017-01-31T03:38:41.161Z,2.39
2017-01-31T03:39:21.859Z,2.5
2017-01-31T03:40:02.429Z,2.5
2017-01-31T03:40:43.090Z,2.47
2017-01-31T03:41:23.776Z,2.5
2017-01-31T03:42:04.468Z,2.44
2017-01-31T03:42:45.042Z,2.5
2017-01-31T03:43:25.694Z,2.47
2017-01-31T03:44:06.366Z,2.51
2017-01-31T03:44:47.087Z,2.39
2017-01-31T03:45:27.758Z,2.49
2017-01-31T03:46:08.423Z,2.54
2017-01-31T03:46:49.190Z,2.42
2017-01-31T03:47:29.918Z,2.51
2017-01-31T03:48:10.760Z,2.49
2017-01-31T03:48:51.429Z,2.42
2017-01-31T03:49:32.067Z,2.5
2017-01-31T03:50:12.735Z,2.5
2017-01-31T03:50:53.491Z,2.5
2017-01-31T03:51:34.131Z,2.44
2017-01-31T03:52:14.802Z,2.5
2017-01-31T03:52:55.445Z,2.51
2017-01-31T03:53:36.100Z,2.46
2017-01-31T03:54:16.855Z,2.38
2017-01-31T03:54:57.509Z,2.43
2017-01-31T03:55:38.167Z,2.53
2017-01-31T03:56:18.915Z,2.51
2017-01-31T03:56:59.567Z,2.49
2017-01-31T03:57:40.212Z,2.5
2017-01-31T03:58:20.809Z,2.49
2017-01-31T03:59:01.511Z,2.51
2017-01-31T03:59:42.078Z,2.54
2017-01-31T04:00:22.729Z,2.56
2017-01-31T04:01:03.318Z,2.53
2017-01-31T04:01:44.022Z,2.42
2017-01-31T04:02:24.577Z,2.38
2017-01-31T04:03:05.234Z,2.5
2017-01-31T04:03:45.933Z,2.5
2017-01-31T04:04:26.633Z,2.47
2017-01-31T04:05:07.199Z,2.47
2017-01-31T04:05:47.851Z,2.53
2017-01-31T04:06:28.547Z,2.5
2017-01-31T04:07:09.242Z,2.39
2017-01-31T04:07:49.801Z,2.47
2017-01-31T04:08:30.439Z,2.46
2017-01-31T04:09:11.155Z,2.46
2017-01-31T04:09:51.864Z,2.5
2017-01-31T04:10:32.445Z,2.5
2017-01-31T04:11:13.214Z,2.47
2017-01-31T04:11:53.870Z,2.5
2017-01-31T04:12:34.571Z,2.5
2017-01-31T04:13:15.218Z,2.47
2017-01-31T04:13:55.879Z,2.47
2017-01-31T04:14:36.530Z,2.5
2017-01-31T04:15:17.286Z,2.54
2017-01-31T04:15:57.939Z,2.44
2017-01-31T04:16:38.592Z,2.49
2017-01-31T04:17:19.349Z,2.42
2017-01-31T04:17:59.999Z,2.49
2017-01-31T04:18:40.755Z,2.5
2017-01-31T04:19:21.408Z,2.51
2017-01-31T04:20:02.161Z,2.46
2017-01-31T04:20:42.814Z,2.49
2017-01-31T04:21:23.469Z,2.47
2017-01-31T04:22:04.121Z,2.47
2017-01-31T04:22:44.875Z,2.49
2017-01-31T04:23:25.443Z,2.43
2017-01-31T04:24:06.191Z,2.43
2017-01-31T04:24:46.838Z,2.43
2017-01-31T04:25:27.500Z,2.43
2017-01-31T04:26:08.257Z,2.53
2017-01-31T04:26:48.911Z,2.42
2017-01-31T04:27:29.542Z,2.43
2017-01-31T04:28:10.218Z,2.43
2017-01-31T04:28:50.913Z,2.5
2017-01-31T04:29:31.611Z,2.46
2017-01-31T04:30:12.177Z,2.49
2017-01-31T04:30:52.830Z,2.51
2017-01-31T04:31:33.521Z,2.49
2017-01-31T04:32:14.220Z,2.51
2017-01-31T04:32:54.786Z,2.42
2017-01-31T04:33:35.439Z,2.5
2017-01-31T04:34:16.209Z,2.49
2017-01-31T04:34:56.951Z,2.42
2017-01-31T04:35:37.608Z,2.5
2017-01-31T04:36:18.265Z,2.42
2017-01-31T04:36:59.013Z,2.46
2017-01-31T04:37:39.663Z,2.42
2017-01-31T04:38:20.313Z,2.53
2017-01-31T04:39:00.976Z,2.46
2017-01-31T04:39:41.727Z,2.43
2017-01-31T04:40:22.392Z,2.5
2017-01-31T04:41:03.047Z,2.43
2017-01-31T04:41:43.789Z,2.43
2017-01-31T04:42:24.440Z,2.49
2017-01-31T04:43:05.099Z,2.46
2017-01-31T04:43:45.781Z,2.47
2017-01-31T04:44:26.484Z,2.43
2017-01-31T04:45:07.051Z,2.49
2017-01-31T04:45:47.701Z,2.46
2017-01-31T04:46:28.394Z,2.46
2017-01-31T04:47:09.098Z,2.53
2017-01-31T04:47:49.666Z,2.43
2017-01-31T04:48:30.302Z,2.43
2017-01-31T04:49:10.972Z,2.51
2017-01-31T04:49:51.619Z,2.46
2017-01-31T04:50:32.286Z,2.51
2017-01-31T04:51:13.036Z,2.56
2017-01-31T04:51:53.788Z,2.5
2017-01-31T04:52:34.544Z,2.42
2017-01-31T04:53:15.304Z,2.5
2017-01-31T04:53:55.960Z,2.47
2017-01-31T04:54:36.611Z,2.5
2017-01-31T04:55:17.263Z,2.54
2017-01-31T04:55:57.911Z,2.54
2017-01-31T04:56:38.568Z,2.54
2017-01-31T04:57:19.220Z,2.54
2017-01-31T04:57:59.874Z,2.49
2017-01-31T04:58:40.555Z,2.56
2017-01-31T04:59:21.260Z,2.5
2017-01-31T05:00:01.810Z,2.54
2017-01-31T05:00:42.488Z,2.49
2017-01-31T05:01:23.178Z,2.53
2017-01-31T05:02:03.739Z,2.54
2017-01-31T05:02:44.291Z,2.46
2017-01-31T05:03:24.897Z,2.54
2017-01-31T05:04:05.581Z,2.5
2017-01-31T05:04:46.306Z,2.5
2017-01-31T05:05:26.951Z,2.56
2017-01-31T05:06:07.605Z,2.51
2017-01-31T05:06:48.339Z,2.53
2017-01-31T05:07:29.016Z,2.49
2017-01-31T05:08:09.671Z,2.51
2017-01-31T05:08:50.397Z,2.53
2017-01-31T05:09:30.955Z,2.5
2017-01-31T05:10:11.621Z,2.5
2017-01-31T05:10:52.355Z,2.5
2017-01-31T05:11:32.924Z,2.5
2017-01-31T05:12:13.671Z,2.56
2017-01-31T05:12:54.422Z,2.53
2017-01-31T05:13:35.072Z,2.53
2017-01-31T05:14:15.827Z,2.54
2017-01-31T05:14:56.589Z,2.51
2017-01-31T05:15:37.238Z,2.49
2017-01-31T05:16:17.890Z,2.56
2017-01-31T05:16:58.643Z,2.56
2017-01-31T05:17:39.293Z,2.53
2017-01-31T05:18:19.871Z,2.61
2017-01-31T05:19:00.616Z,2.56
2017-01-31T05:19:41.310Z,2.57
2017-01-31T05:20:23.037Z,2.57
2017-01-31T05:21:03.588Z,2.5
2017-01-31T05:21:44.263Z,2.5
2017-01-31T05:22:24.954Z,2.49
2017-01-31T05:23:05.651Z,2.57
2017-01-31T05:23:46.203Z,2.54
2017-01-31T05:24:26.890Z,2.42
2017-01-31T05:25:07.555Z,2.53
2017-01-31T05:25:48.261Z,2.53
2017-01-31T05:26:28.827Z,2.51
2017-01-31T05:27:09.480Z,2.53
2017-01-31T05:27:50.182Z,2.54
2017-01-31T05:28:30.811Z,2.49
2017-01-31T05:29:11.539Z,2.5
2017-01-31T05:29:52.285Z,2.51
2017-01-31T05:30:32.847Z,2.43
2017-01-31T05:31:13.636Z,2.51
2017-01-31T05:31:54.342Z,2.47
2017-01-31T05:32:34.943Z,2.5
2017-01-31T05:33:15.578Z,2.51
2017-01-31T05:33:56.417Z,2.5
2017-01-31T05:34:37.075Z,2.39
2017-01-31T05:35:17.729Z,2.53
2017-01-31T05:35:58.382Z,2.47
2017-01-31T05:36:39.030Z,2.46
2017-01-31T05:37:19.787Z,2.43
2017-01-31T05:38:00.442Z,2.53
2017-01-31T05:38:41.132Z,2.47
2017-01-31T05:39:21.841Z,2.47
2017-01-31T05:40:02.413Z,2.33
2017-01-31T05:40:43.054Z,2.47
2017-01-31T05:41:23.738Z,2.38
2017-01-31T05:42:04.449Z,2.39
2017-01-31T05:42:45.002Z,2.36
2017-01-31T05:43:25.702Z,2.43
2017-01-31T05:44:06.363Z,2.35
2017-01-31T05:44:47.059Z,2.36
2017-01-31T05:45:27.630Z,2.33
2017-01-31T05:46:08.325Z,2.33
2017-01-31T05:46:49.010Z,2.36
2017-01-31T05:47:29.581Z,2.29
2017-01-31T05:48:10.340Z,2.38
2017-01-31T05:48:51.033Z,2.33
2017-01-31T05:49:31.732Z,2.31
2017-01-31T05:50:12.286Z,2.33
2017-01-31T05:50:53.052Z,2.38
2017-01-31T05:51:33.753Z,2.28
2017-01-31T05:52:14.436Z,2.29
2017-01-31T05:52:55.004Z,2.26
2017-01-31T05:53:35.569Z,2.35
2017-01-31T05:54:16.315Z,2.33
2017-01-31T05:54:57.074Z,2.35
2017-01-31T05:55:37.840Z,2.32
2017-01-31T05:56:18.576Z,2.33
2017-01-31T05:56:59.334Z,2.33
2017-01-31T05:57:39.987Z,2.36
2017-01-31T05:58:20.741Z,2.42
2017-01-31T05:59:01.498Z,2.32
2017-01-31T05:59:42.271Z,2.32
2017-01-31T06:00:23.009Z,2.36
2017-01-31T06:01:03.764Z,2.36
2017-01-31T06:01:44.520Z,2.31
2017-01-31T06:02:25.284Z,2.32
2017-01-31T06:03:06.050Z,2.33
2017-01-31T06:03:46.784Z,2.33
2017-01-31T06:04:27.340Z,2.31
2017-01-31T06:05:08.147Z,2.25
2017-01-31T06:05:48.847Z,2.35
2017-01-31T06:06:29.603Z,2.25
2017-01-31T06:07:10.360Z,2.36
2017-01-31T06:07:51.116Z,2.33
2017-01-31T06:08:31.831Z,2.22
2017-01-31T06:09:12.523Z,2.26
2017-01-31T06:09:53.127Z,2.33
2017-01-31T06:10:33.843Z,2.29
2017-01-31T06:11:14.528Z,2.24
2017-01-31T06:11:55.226Z,2.32
2017-01-31T06:12:35.793Z,2.28
2017-01-31T06:13:16.546Z,2.2
2017-01-31T06:13:57.244Z,2.24
2017-01-31T06:14:37.940Z,2.26
2017-01-31T06:15:18.508Z,2.22
2017-01-31T06:15:59.262Z,2.22
2017-01-31T06:16:39.971Z,2.24
2017-01-31T06:17:20.652Z,2.22
2017-01-31T06:18:01.251Z,2.35
2017-01-31T06:18:41.976Z,2.26
2017-01-31T06:19:22.732Z,2.28
2017-01-31T06:20:03.487Z,2.25
2017-01-31T06:20:44.249Z,2.25
2017-01-31T06:21:24.993Z,2.35
2017-01-31T06:22:05.758Z,2.22
2017-01-31T06:22:46.494Z,2.26
2017-01-31T06:23:27.278Z,2.29
2017-01-31T06:24:07.952Z,2.26
2017-01-31T06:24:48.660Z,2.24
2017-01-31T06:25:29.228Z,2.24
2017-01-31T06:26:09.983Z,2.22
2017-01-31T06:26:50.771Z,2.25
2017-01-31T06:27:31.320Z,2.33
2017-01-31T06:28:12.020Z,2.24
2017-01-31T06:28:52.596Z,2.33
2017-01-31T06:29:33.331Z,2.2
2017-01-31T06:30:13.903Z,2.32
2017-01-31T06:30:54.655Z,2.32
2017-01-31T06:31:35.340Z,2.24
2017-01-31T06:32:15.897Z,2.31
2017-01-31T06:32:56.600Z,2.26
2017-01-31T06:33:37.327Z,2.33
2017-01-31T06:34:18.060Z,2.31
2017-01-31T06:34:58.922Z,2.31
2017-01-31T06:35:39.674Z,2.26
2017-01-31T06:36:20.427Z,2.31
2017-01-31T06:37:01.179Z,2.35
2017-01-31T06:37:41.932Z,2.29
2017-01-31T06:38:22.703Z,2.28
2017-01-31T06:39:03.393Z,2.33
2017-01-31T06:39:43.955Z,2.24
2017-01-31T06:40:24.700Z,2.25
2017-01-31T06:41:05.410Z,2.22
2017-01-31T06:41:46.004Z,2.33
2017-01-31T06:42:26.579Z,2.2
2017-01-31T06:43:07.338Z,2.32
2017-01-31T06:43:48.017Z,2.33
2017-01-31T06:44:28.719Z,2.24
2017-01-31T06:45:09.301Z,2.35
2017-01-31T06:45:50.073Z,2.32
2017-01-31T06:46:30.779Z,2.33
2017-01-31T06:47:11.345Z,2.33
2017-01-31T06:47:52.108Z,2.24
2017-01-31T06:48:32.891Z,2.32
2017-01-31T06:49:13.598Z,2.22
2017-01-31T06:49:54.167Z,2.22
2017-01-31T06:50:34.904Z,2.28
2017-01-31T06:51:15.627Z,2.25
2017-01-31T06:51:56.309Z,2.38
2017-01-31T06:52:36.890Z,2.29
2017-01-31T06:53:17.617Z,2.24
2017-01-31T06:53:58.191Z,2.24
2017-01-31T06:54:38.934Z,2.35
2017-01-31T06:55:19.673Z,2.22
2017-01-31T06:56:00.228Z,2.2
2017-01-31T06:56:41.004Z,2.26
2017-01-31T06:57:21.801Z,2.24
2017-01-31T06:58:02.552Z,2.24
2017-01-31T06:58:43.245Z,2.26
2017-01-31T06:59:23.795Z,2.25
2017-01-31T07:00:04.574Z,2.28
2017-01-31T07:00:45.256Z,2.25
2017-01-31T07:01:25.963Z,2.25
2017-01-31T07:02:06.514Z,2.22
2017-01-31T07:02:47.272Z,2.28
2017-01-31T07:03:27.973Z,2.25
2017-01-31T07:04:08.534Z,2.26
2017-01-31T07:04:49.239Z,2.26
2017-01-31T07:05:30.005Z,2.26
2017-01-31T07:06:10.759Z,2.28
2017-01-31T07:06:51.519Z,2.31
2017-01-31T07:07:32.244Z,2.26
2017-01-31T07:08:13.013Z,2.24
2017-01-31T07:08:53.749Z,2.25
2017-01-31T07:09:34.433Z,2.25
2017-01-31T07:10:15.163Z,2.28
2017-01-31T07:10:55.843Z,2.31
2017-01-31T07:11:36.583Z,2.25
2017-01-31T07:12:17.347Z,2.29
2017-01-31T07:12:57.905Z,2.2
2017-01-31T07:13:38.637Z,2.26
2017-01-31T07:14:19.413Z,2.25
2017-01-31T07:15:00.168Z,2.29
2017-01-31T07:15:40.916Z,2.2
2017-01-31T07:16:21.657Z,2.2
2017-01-31T07:17:02.411Z,2.26
2017-01-31T07:17:43.183Z,2.29
2017-01-31T07:18:23.945Z,2.25
2017-01-31T07:19:04.525Z,2.29
2017-01-31T07:19:45.230Z,2.28
2017-01-31T07:20:25.801Z,2.26
2017-01-31T07:21:06.553Z,2.28
2017-01-31T07:21:47.250Z,2.26
2017-01-31T07:22:27.943Z,2.25
2017-01-31T07:23:08.513Z,2.29
2017-01-31T07:23:49.271Z,2.26
2017-01-31T07:24:30.002Z,2.22
2017-01-31T07:25:10.572Z,2.25
2017-01-31T07:25:51.141Z,2.24
2017-01-31T07:26:31.903Z,2.24
2017-01-31T07:27:12.612Z,2.26
2017-01-31T07:27:53.180Z,2.26
2017-01-31T07:28:33.937Z,2.28
2017-01-31T07:29:14.675Z,2.31
2017-01-31T07:29:55.452Z,2.25
2017-01-31T07:30:36.207Z,2.29
2017-01-31T07:31:16.970Z,2.18
2017-01-31T07:31:57.713Z,2.28
2017-01-31T07:32:38.461Z,2.2
2017-01-31T07:33:19.232Z,2.25
2017-01-31T07:33:59.897Z,2.22
2017-01-31T07:34:40.530Z,2.29
2017-01-31T07:35:21.188Z,2.24
2017-01-31T07:36:01.838Z,2.24
2017-01-31T07:36:42.499Z,2.18
2017-01-31T07:37:23.149Z,2.2
2017-01-31T07:38:03.793Z,2.33
2017-01-31T07:38:44.447Z,2.33
2017-01-31T07:39:25.047Z,2.22
2017-01-31T07:40:05.634Z,2.29
2017-01-31T07:40:46.220Z,2.32
2017-01-31T07:41:26.856Z,2.31
2017-01-31T07:42:07.439Z,2.24
2017-01-31T07:42:48.044Z,2.35
2017-01-31T07:43:28.618Z,2.24
2017-01-31T07:44:09.257Z,2.32
2017-01-31T07:44:49.899Z,2.33
2017-01-31T07:45:30.452Z,2.35
2017-01-31T07:46:11.114Z,2.33
2017-01-31T07:46:51.751Z,2.24
2017-01-31T07:47:32.319Z,2.24
2017-01-31T07:48:12.974Z,2.33
2017-01-31T07:48:53.612Z,2.29
2017-01-31T07:49:34.266Z,2.35
2017-01-31T07:50:14.916Z,2.26
2017-01-31T07:50:55.577Z,2.33
2017-01-31T07:51:36.223Z,2.33
2017-01-31T07:52:16.879Z,2.31
2017-01-31T07:52:57.526Z,2.42
2017-01-31T07:53:38.106Z,2.31
2017-01-31T07:54:18.748Z,2.36
2017-01-31T07:54:59.340Z,2.35
2017-01-31T07:55:39.938Z,2.31
2017-01-31T07:56:20.505Z,2.29
2017-01-31T07:57:01.163Z,2.32
2017-01-31T07:57:41.745Z,2.31
2017-01-31T07:58:22.309Z,2.38
2017-01-31T07:59:02.864Z,2.38
2017-01-31T07:59:43.470Z,2.39
2017-01-31T08:00:24.150Z,2.31
2017-01-31T08:01:04.748Z,2.36
2017-01-31T08:01:45.337Z,2.26
2017-01-31T08:02:25.973Z,2.28
2017-01-31T08:03:06.671Z,2.38
2017-01-31T08:03:47.257Z,2.26
2017-01-31T08:04:27.914Z,2.36
2017-01-31T08:05:08.563Z,2.38
2017-01-31T08:05:49.217Z,2.36
2017-01-31T08:06:29.873Z,2.35
2017-01-31T08:07:10.520Z,2.33
2017-01-31T08:07:51.106Z,2.39
2017-01-31T08:08:31.692Z,2.42
2017-01-31T08:09:12.329Z,2.39
2017-01-31T08:09:52.932Z,2.33
2017-01-31T08:10:33.506Z,2.39
2017-01-31T08:11:14.160Z,2.38
2017-01-31T08:11:54.792Z,2.38
2017-01-31T08:12:35.369Z,2.44
2017-01-31T08:13:16.014Z,2.36
2017-01-31T08:13:56.644Z,2.49
2017-01-31T08:14:37.296Z,2.43
2017-01-31T08:15:17.953Z,2.35
2017-01-31T08:15:58.598Z,2.38
2017-01-31T08:16:39.260Z,2.5
2017-01-31T08:17:19.911Z,2.51
2017-01-31T08:18:00.562Z,2.44
2017-01-31T08:18:41.225Z,2.5
2017-01-31T08:19:21.862Z,2.38
2017-01-31T08:20:02.522Z,2.39
2017-01-31T08:20:43.174Z,2.46
2017-01-31T08:21:23.830Z,2.46
2017-01-31T08:22:04.482Z,2.5
2017-01-31T08:22:45.134Z,2.43
2017-01-31T08:23:25.789Z,2.5
2017-01-31T08:24:06.360Z,2.53
2017-01-31T08:24:47.015Z,2.56
2017-01-31T08:25:27.595Z,2.57
2017-01-31T08:26:08.191Z,2.5
2017-01-31T08:26:48.761Z,2.5
2017-01-31T08:27:29.422Z,2.51
2017-01-31T08:28:10.007Z,2.56
2017-01-31T08:28:50.603Z,2.53
2017-01-31T08:29:31.260Z,2.54
2017-01-31T08:30:11.908Z,2.46
2017-01-31T08:30:52.562Z,2.64
2017-01-31T08:31:33.215Z,2.65
2017-01-31T08:32:13.867Z,2.68
2017-01-31T08:32:54.525Z,2.68
2017-01-31T08:33:35.090Z,2.6
2017-01-31T08:34:15.754Z,2.61
2017-01-31T08:34:56.376Z,2.6
2017-01-31T08:35:36.927Z,2.67
2017-01-31T08:36:18.627Z,2.62
2017-01-31T08:36:59.259Z,2.65
2017-01-31T08:37:39.811Z,2.64
2017-01-31T08:38:20.469Z,2.64
2017-01-31T08:39:02.146Z,2.64
2017-01-31T08:39:42.795Z,2.65
2017-01-31T08:40:23.441Z,2.65
2017-01-31T08:41:04.092Z,2.64
2017-01-31T08:41:44.762Z,2.57
2017-01-31T08:42:25.394Z,2.62
2017-01-31T08:43:06.057Z,2.67
2017-01-31T08:43:46.610Z,2.77
2017-01-31T08:44:27.174Z,2.64
2017-01-31T08:45:07.775Z,2.69
2017-01-31T08:45:48.562Z,2.69
2017-01-31T08:46:29.161Z,2.68
2017-01-31T08:47:10.815Z,2.75
2017-01-31T08:47:51.509Z,2.74
2017-01-31T08:48:32.203Z,2.75
2017-01-31T08:49:12.772Z,2.74
2017-01-31T08:49:53.416Z,2.71
2017-01-31T08:50:34.107Z,2.75
2017-01-31T08:51:14.708Z,2.8
2017-01-31T08:51:55.268Z,2.74
2017-01-31T08:52:35.933Z,2.77
2017-01-31T08:53:16.514Z,2.74
2017-01-31T08:53:57.089Z,2.85
2017-01-31T08:54:37.642Z,2.75
2017-01-31T08:55:18.237Z,2.8
2017-01-31T08:55:58.873Z,2.82
2017-01-31T08:56:39.436Z,2.83
2017-01-31T08:57:20.028Z,2.92
2017-01-31T08:58:00.668Z,2.97
2017-01-31T08:58:41.221Z,2.93
2017-01-31T08:59:21.899Z,2.97
2017-01-31T09:00:02.582Z,2.98
2017-01-31T09:00:43.282Z,2.98
2017-01-31T09:01:23.840Z,3
2017-01-31T09:02:04.488Z,3
2017-01-31T09:02:45.097Z,3.05
2017-01-31T09:03:25.693Z,3.05